Canon City, Colorado
Current Conditions -  °F | °C
As of 4:15 AM on Monday 22 Dec 2014 (Local Time) from K1V6 Reporting Station
Overcast Overcast  
Wind Chill: 31°   Ceiling: 1700
Heat Index: 36°   Visibility: 10mi
Dew Point: 32°   Wind: 6mph
Humidity: 87%   Direction: 140°SE
Pressure: 29.75"   Gusts: NA
Location:  38.44°N, 105.23°W
Report Text: K1V6 221115Z AUTO 14005KT 10SM BKN017 OVC035 02/00 A2975 RMK AO2
Loading
Personal Weather Stations






























Interactive Weather Map New forecast layout! Learn more

10-Day Weather Forecast

Advertisements
Track Severe Weather on mobile